createdAt,value
2018-12-19T00:01:40.345Z,60.77
2018-12-19T00:04:09.632Z,55.93
2018-12-19T00:06:38.862Z,57.30
2018-12-19T00:09:08.675Z,52.23
2018-12-19T00:11:38.087Z,62.80
2018-12-19T00:14:07.545Z,60.00
2018-12-19T00:16:36.825Z,53.63
2018-12-19T00:19:06.079Z,58.43
2018-12-19T00:21:35.393Z,52.57
2018-12-19T00:24:04.845Z,50.17
2018-12-19T00:26:34.092Z,55.93
2018-12-19T00:29:04.405Z,58.03
2018-12-19T00:31:33.935Z,59.60
2018-12-19T00:34:03.990Z,64.00
2018-12-19T00:36:34.542Z,59.43
2018-12-19T00:39:09.498Z,62.13
2018-12-19T00:41:36.808Z,61.20
2018-12-19T00:44:06.171Z,53.67
2018-12-19T00:46:35.627Z,55.33
2018-12-19T00:49:04.916Z,67.50
2018-12-19T00:51:34.128Z,45.50
2018-12-19T00:54:03.369Z,55.43
2018-12-19T00:56:32.635Z,61.97
2018-12-19T00:59:02.803Z,54.00
2018-12-19T01:01:32.847Z,61.93
2018-12-19T01:04:02.135Z,51.67
2018-12-19T01:06:31.481Z,59.10
2018-12-19T01:09:01.077Z,58.67
2018-12-19T01:11:30.371Z,61.00
2018-12-19T01:14:00.794Z,64.90
2018-12-19T01:16:30.142Z,64.07
2018-12-19T01:18:59.398Z,56.97
2018-12-19T01:21:28.608Z,63.57
2018-12-19T01:23:57.809Z,68.23
2018-12-19T01:26:27.341Z,71.07
2018-12-19T01:28:56.715Z,73.93
2018-12-19T01:31:25.976Z,76.80
2018-12-19T01:33:55.255Z,82.23
2018-12-19T01:36:24.738Z,71.67
2018-12-19T01:38:54.097Z,64.60
2018-12-19T01:41:23.402Z,73.83
2018-12-19T01:43:52.701Z,52.60
2018-12-19T01:46:22.016Z,71.23
2018-12-19T01:48:51.236Z,71.47
2018-12-19T01:51:20.885Z,67.97
2018-12-19T01:53:50.308Z,60.93
2018-12-19T01:56:19.506Z,81.80
2018-12-19T01:58:48.836Z,74.13
2018-12-19T02:01:18.088Z,73.43
2018-12-19T02:03:47.783Z,67.17
2018-12-19T02:06:17.043Z,63.43
2018-12-19T02:08:46.326Z,73.27
2018-12-19T02:11:15.635Z,73.93
2018-12-19T02:13:44.878Z,67.13
2018-12-19T02:16:14.117Z,69.67
2018-12-19T02:18:43.311Z,68.73
2018-12-19T02:21:12.896Z,58.47
2018-12-19T02:23:42.106Z,70.70
2018-12-19T02:26:11.472Z,64.63
2018-12-19T02:28:41.570Z,54.43
2018-12-19T02:31:10.976Z,53.37
2018-12-19T02:33:40.174Z,62.97
2018-12-19T02:36:09.385Z,58.53
2018-12-19T02:38:38.685Z,58.83
2018-12-19T02:41:07.937Z,58.20
2018-12-19T02:43:37.148Z,53.27
2018-12-19T02:46:06.374Z,58.87
2018-12-19T02:48:36.583Z,60.47
2018-12-19T02:51:05.921Z,58.40
2018-12-19T02:53:35.192Z,46.77
2018-12-19T02:56:04.469Z,55.77
2018-12-19T02:58:33.853Z,53.70
2018-12-19T03:01:03.217Z,59.83
2018-12-19T03:03:32.502Z,54.67
2018-12-19T03:06:01.782Z,69.23
2018-12-19T03:08:31.643Z,67.63
2018-12-19T03:11:00.978Z,66.90
2018-12-19T03:13:30.809Z,64.67
2018-12-19T03:16:00.802Z,62.27
2018-12-19T03:18:30.162Z,61.60
2018-12-19T03:20:59.951Z,60.23
2018-12-19T03:23:30.204Z,58.87
2018-12-19T03:25:59.437Z,57.37
2018-12-19T03:28:28.633Z,61.43
2018-12-19T03:30:57.857Z,61.47
2018-12-19T03:33:27.730Z,50.97
2018-12-19T03:35:56.975Z,56.07
2018-12-19T03:38:26.230Z,52.13
2018-12-19T03:40:55.597Z,56.13
2018-12-19T03:43:24.836Z,53.53
2018-12-19T03:45:54.087Z,48.93
2018-12-19T03:48:28.453Z,48.53
2018-12-19T03:50:57.800Z,57.33
2018-12-19T03:53:28.007Z,49.97
2018-12-19T03:55:57.260Z,45.07
2018-12-19T03:58:26.602Z,56.57
2018-12-19T04:00:55.868Z,53.53
2018-12-19T04:03:25.179Z,49.17
2018-12-19T04:05:54.507Z,57.37
2018-12-19T04:08:23.721Z,53.67
2018-12-19T04:10:52.987Z,47.60
2018-12-19T04:13:22.268Z,49.77
2018-12-19T04:15:51.619Z,47.00
2018-12-19T04:18:20.870Z,49.33
2018-12-19T04:20:50.820Z,48.30
2018-12-19T04:23:20.101Z,47.07
2018-12-19T04:25:49.308Z,47.97
2018-12-19T04:28:18.580Z,50.10
2018-12-19T04:30:47.856Z,48.33
2018-12-19T04:33:17.133Z,47.07
2018-12-19T04:35:46.689Z,50.83
2018-12-19T04:38:16.106Z,46.63
2018-12-19T04:40:45.427Z,52.87
2018-12-19T04:43:14.695Z,54.60
2018-12-19T04:45:44.072Z,48.50
2018-12-19T04:48:13.445Z,44.73
2018-12-19T04:50:42.679Z,46.33
2018-12-19T04:53:14.541Z,41.53
2018-12-19T04:55:43.848Z,43.90
2018-12-19T04:58:13.158Z,45.73
2018-12-19T05:00:42.497Z,44.57
2018-12-19T05:03:11.880Z,45.77
2018-12-19T05:05:41.209Z,44.20
2018-12-19T05:08:10.456Z,42.67
2018-12-19T05:10:39.734Z,44.53
2018-12-19T05:13:15.347Z,39.67
2018-12-19T05:15:45.638Z,37.53
2018-12-19T05:18:14.879Z,34.67
2018-12-19T05:20:45.122Z,38.03
2018-12-19T05:23:14.436Z,40.83
2018-12-19T05:25:43.730Z,38.90
2018-12-19T05:28:12.976Z,38.13
2018-12-19T05:30:42.291Z,36.67
2018-12-19T05:33:11.499Z,39.07
2018-12-19T05:35:40.828Z,38.67
2018-12-19T05:38:10.079Z,39.97
2018-12-19T05:40:39.390Z,40.87
2018-12-19T05:43:23.349Z,43.63
2018-12-19T05:45:52.595Z,43.03
2018-12-19T05:48:21.846Z,39.10
2018-12-19T05:50:51.116Z,40.20
2018-12-19T05:53:20.343Z,36.60
2018-12-19T05:55:49.564Z,39.57
2018-12-19T05:58:18.821Z,40.33
2018-12-19T06:00:48.072Z,39.40
2018-12-19T06:03:17.344Z,41.23
2018-12-19T06:05:47.244Z,38.83
2018-12-19T06:08:16.859Z,36.07
2018-12-19T06:10:46.152Z,32.70
2018-12-19T06:13:15.461Z,37.33
2018-12-19T06:15:44.726Z,39.63
2018-12-19T06:18:13.960Z,38.77
2018-12-19T06:20:43.281Z,38.50
2018-12-19T06:23:15.211Z,35.80
2018-12-19T06:25:44.458Z,35.40
2018-12-19T06:28:13.866Z,33.47
2018-12-19T06:30:43.795Z,32.90
2018-12-19T06:33:13.045Z,38.60
2018-12-19T06:35:42.321Z,36.67
2018-12-19T06:38:11.936Z,38.57
2018-12-19T06:40:41.298Z,39.17
2018-12-19T06:43:10.555Z,39.37
2018-12-19T06:45:39.880Z,52.40
2018-12-19T06:48:09.111Z,42.33
2018-12-19T06:50:38.335Z,41.13
2018-12-19T06:53:07.555Z,42.87
2018-12-19T06:55:36.870Z,37.50
2018-12-19T06:58:06.105Z,36.53
2018-12-19T07:00:35.750Z,42.37
2018-12-19T07:03:05.034Z,39.63
2018-12-19T07:05:34.307Z,45.00
2018-12-19T07:08:03.611Z,38.73
2018-12-19T07:10:38.984Z,35.67
2018-12-19T07:13:04.747Z,40.60
2018-12-19T07:15:34.018Z,38.87
2018-12-19T07:18:03.379Z,40.33
2018-12-19T07:20:34.339Z,38.07
2018-12-19T07:23:03.572Z,32.40
2018-12-19T07:25:33.005Z,34.53
2018-12-19T07:28:02.356Z,34.97
2018-12-19T07:30:31.825Z,34.57
2018-12-19T07:33:01.118Z,34.73
2018-12-19T07:35:30.373Z,37.53
2018-12-19T07:37:59.642Z,33.70
2018-12-19T07:40:29.369Z,35.90
2018-12-19T07:42:58.649Z,39.77
2018-12-19T07:45:28.024Z,37.30
2018-12-19T07:47:57.793Z,37.97
2018-12-19T07:50:27.133Z,36.23
2018-12-19T07:52:56.432Z,34.43
2018-12-19T07:55:27.592Z,41.27
2018-12-19T07:57:56.824Z,39.80
2018-12-19T08:00:27.586Z,36.37
2018-12-19T08:02:57.089Z,36.23
2018-12-19T08:05:26.877Z,35.87
2018-12-19T08:07:57.405Z,34.37
2018-12-19T08:10:26.733Z,35.00
2018-12-19T08:12:55.954Z,36.33
2018-12-19T08:15:25.225Z,31.70
2018-12-19T08:17:54.817Z,35.23
2018-12-19T08:20:24.073Z,34.17
2018-12-19T08:22:53.435Z,31.97
2018-12-19T08:25:22.662Z,34.47
2018-12-19T08:27:51.986Z,34.13
2018-12-19T08:30:21.930Z,32.97
2018-12-19T08:32:51.279Z,32.80
2018-12-19T08:35:21.142Z,30.23
2018-12-19T08:37:50.434Z,34.33
2018-12-19T08:40:19.700Z,30.40
2018-12-19T08:42:48.952Z,28.93
2018-12-19T08:45:18.502Z,26.30
2018-12-19T08:47:48.034Z,32.07
2018-12-19T08:50:17.610Z,32.07
2018-12-19T08:52:46.839Z,33.63
2018-12-19T08:55:16.115Z,31.37
2018-12-19T08:57:46.243Z,30.70
2018-12-19T09:00:16.312Z,32.07
2018-12-19T09:02:45.598Z,32.43
2018-12-19T09:05:16.625Z,33.30
2018-12-19T09:07:46.098Z,32.77
2018-12-19T09:10:15.370Z,33.90
2018-12-19T09:12:44.800Z,31.37
2018-12-19T09:15:16.084Z,29.50
2018-12-19T09:17:46.300Z,28.83
2018-12-19T09:20:16.303Z,26.60
2018-12-19T09:22:46.751Z,28.80
2018-12-19T09:25:16.022Z,26.00
2018-12-19T09:27:45.299Z,29.87
2018-12-19T09:30:14.831Z,30.97
2018-12-19T09:32:44.180Z,30.20
2018-12-19T09:35:13.541Z,30.07
2018-12-19T09:37:42.890Z,29.00
2018-12-19T09:40:12.277Z,30.00
2018-12-19T09:42:41.532Z,27.17
2018-12-19T09:45:10.833Z,28.73
2018-12-19T09:47:40.087Z,27.00
2018-12-19T09:50:09.787Z,26.63
2018-12-19T09:52:39.122Z,23.77
2018-12-19T09:55:08.390Z,28.00
2018-12-19T09:57:37.855Z,24.90
2018-12-19T10:00:11.627Z,24.90
2018-12-19T10:02:41.580Z,29.47
2018-12-19T10:05:10.903Z,23.20
2018-12-19T10:07:40.394Z,24.97
2018-12-19T10:10:09.774Z,26.47
2018-12-19T10:12:39.005Z,22.43
2018-12-19T10:15:08.533Z,23.83
2018-12-19T10:17:40.939Z,21.20
2018-12-19T10:20:09.274Z,21.53
2018-12-19T10:22:39.272Z,20.80
2018-12-19T10:25:15.676Z,20.17
2018-12-19T10:27:44.963Z,25.03
2018-12-19T10:30:14.733Z,22.27
2018-12-19T10:32:44.107Z,20.73
2018-12-19T10:35:13.537Z,22.63
2018-12-19T10:37:42.774Z,24.50
2018-12-19T10:40:12.637Z,25.70
2018-12-19T10:42:41.882Z,20.20
2018-12-19T10:45:12.152Z,19.17
2018-12-19T10:47:42.285Z,23.13
2018-12-19T10:50:11.714Z,23.57
2018-12-19T10:52:40.981Z,22.87
2018-12-19T10:55:10.435Z,19.97
2018-12-19T10:57:39.680Z,20.73
2018-12-19T11:00:17.742Z,22.13
2018-12-19T11:02:49.093Z,24.93
2018-12-19T11:05:19.101Z,22.57
2018-12-19T11:07:48.291Z,19.03
2018-12-19T11:10:17.642Z,20.33
2018-12-19T11:12:46.899Z,22.53
2018-12-19T11:15:16.154Z,25.30
2018-12-19T11:17:45.549Z,25.23
2018-12-19T11:20:14.857Z,23.47
2018-12-19T11:22:44.678Z,21.40
2018-12-19T11:25:13.972Z,21.03
2018-12-19T11:27:43.796Z,19.13
2018-12-19T11:30:13.092Z,21.53
2018-12-19T11:32:43.211Z,20.77
2018-12-19T11:35:12.435Z,21.77
2018-12-19T11:37:42.384Z,20.60
2018-12-19T11:40:11.732Z,21.50
2018-12-19T11:42:41.168Z,22.50
2018-12-19T11:45:10.425Z,22.27
2018-12-19T11:47:39.729Z,19.80
2018-12-19T11:50:09.398Z,20.57
2018-12-19T11:52:39.369Z,24.30
2018-12-19T11:55:08.918Z,22.07
2018-12-19T11:57:38.580Z,20.23
2018-12-19T12:00:09.633Z,22.03
2018-12-19T12:02:39.287Z,22.40
2018-12-19T12:05:08.627Z,20.93
2018-12-19T12:07:38.003Z,26.10
2018-12-19T12:10:08.595Z,22.13
2018-12-19T12:12:37.924Z,25.50
2018-12-19T12:15:07.913Z,23.97
2018-12-19T12:17:37.635Z,19.67
2018-12-19T12:20:08.562Z,19.07
2018-12-19T12:22:38.050Z,23.93
2018-12-19T12:25:07.636Z,23.63
2018-12-19T12:27:36.917Z,20.90
2018-12-19T12:30:06.866Z,19.70
2018-12-19T12:32:36.053Z,21.03
2018-12-19T12:35:07.068Z,20.73
2018-12-19T12:37:36.317Z,22.37
2018-12-19T12:40:06.628Z,19.70
2018-12-19T12:42:35.972Z,20.87
2018-12-19T12:45:05.882Z,22.00
2018-12-19T12:47:35.154Z,24.53
2018-12-19T12:50:05.478Z,19.27
2018-12-19T12:52:34.917Z,18.50
2018-12-19T12:55:04.384Z,18.20
2018-12-19T12:57:34.177Z,19.60
2018-12-19T13:00:03.582Z,18.53
2018-12-19T13:02:32.813Z,23.87
2018-12-19T13:05:02.020Z,21.47
2018-12-19T13:07:31.369Z,17.57
2018-12-19T13:10:00.581Z,19.97
2018-12-19T13:12:29.816Z,18.20
2018-12-19T13:14:59.305Z,22.07
2018-12-19T13:17:29.136Z,18.73
2018-12-19T13:19:58.386Z,22.07
2018-12-19T13:22:27.636Z,22.83
2018-12-19T13:24:56.843Z,22.63
2018-12-19T13:27:26.203Z,20.37
2018-12-19T13:29:55.435Z,19.93
2018-12-19T13:32:24.708Z,21.67
2018-12-19T13:34:54.481Z,22.67
2018-12-19T13:37:24.311Z,22.20
2018-12-19T13:39:53.737Z,20.03
2018-12-19T13:42:23.080Z,23.13
2018-12-19T13:44:52.336Z,21.83
2018-12-19T13:47:21.899Z,22.37
2018-12-19T13:49:51.959Z,23.43
2018-12-19T13:52:21.221Z,20.33
2018-12-19T13:54:50.558Z,22.90
2018-12-19T13:57:20.560Z,23.03
2018-12-19T13:59:49.955Z,25.47
2018-12-19T14:02:19.456Z,24.33
2018-12-19T14:04:48.922Z,24.67
2018-12-19T14:07:18.286Z,20.73
2018-12-19T14:09:49.796Z,23.87
2018-12-19T14:12:19.035Z,23.27
2018-12-19T14:14:49.075Z,25.23
2018-12-19T14:17:19.011Z,24.57
2018-12-19T14:19:48.437Z,25.30
2018-12-19T14:22:17.686Z,25.10
2018-12-19T14:24:46.979Z,21.17
2018-12-19T14:27:17.318Z,22.23
2018-12-19T14:29:47.528Z,24.17
2018-12-19T14:32:17.071Z,22.47
2018-12-19T14:34:47.804Z,23.43
2018-12-19T14:37:17.381Z,24.03
2018-12-19T14:39:47.100Z,25.10
2018-12-19T14:42:19.248Z,24.27
2018-12-19T14:44:47.808Z,21.80
2018-12-19T14:47:17.129Z,22.50
2018-12-19T14:49:47.127Z,26.03
2018-12-19T14:52:16.512Z,26.67
2018-12-19T14:54:45.810Z,27.90
2018-12-19T14:57:15.349Z,24.40
2018-12-19T14:59:45.446Z,25.83
2018-12-19T15:02:15.699Z,28.33
2018-12-19T15:04:48.923Z,33.77
2018-12-19T15:07:21.367Z,29.77
2018-12-19T15:09:51.368Z,36.70
2018-12-19T15:12:25.768Z,27.33
2018-12-19T15:14:52.591Z,28.17
2018-12-19T15:17:21.904Z,31.57
2018-12-19T15:19:51.685Z,28.87
2018-12-19T15:22:20.961Z,28.17
2018-12-19T15:24:50.203Z,27.87
2018-12-19T15:27:19.538Z,29.70
2018-12-19T15:29:49.073Z,28.03
2018-12-19T15:32:18.497Z,23.67
2018-12-19T15:34:48.556Z,23.47
2018-12-19T15:37:18.046Z,26.90
2018-12-19T15:39:47.307Z,29.00
2018-12-19T15:42:16.512Z,26.00
2018-12-19T15:44:45.789Z,30.20
2018-12-19T15:47:15.045Z,29.93
2018-12-19T15:49:45.290Z,25.77
2018-12-19T15:52:15.072Z,24.10
2018-12-19T15:54:44.668Z,25.30
2018-12-19T15:57:14.113Z,28.30
2018-12-19T15:59:45.179Z,29.17
2018-12-19T16:02:16.019Z,33.23
2018-12-19T16:04:48.514Z,35.53
2018-12-19T16:07:18.510Z,30.67
2018-12-19T16:09:48.073Z,30.70
2018-12-19T16:12:17.365Z,30.57
2018-12-19T16:14:52.582Z,28.23
2018-12-19T16:17:21.873Z,33.30
2018-12-19T16:19:52.228Z,33.07
2018-12-19T16:22:33.821Z,30.37
2018-12-19T16:25:03.226Z,29.87
2018-12-19T16:27:32.536Z,32.17
2018-12-19T16:30:02.107Z,32.50
2018-12-19T16:32:31.356Z,39.13
2018-12-19T16:35:01.408Z,29.00
2018-12-19T16:37:30.644Z,29.03
2018-12-19T16:40:00.903Z,33.33
2018-12-19T16:42:30.276Z,32.27
2018-12-19T16:45:00.593Z,32.23
2018-12-19T16:47:29.803Z,33.03
2018-12-19T16:49:59.197Z,35.13
2018-12-19T16:52:28.729Z,36.13
2018-12-19T16:54:58.008Z,35.33
2018-12-19T16:57:27.303Z,35.83
2018-12-19T16:59:56.948Z,41.20
2018-12-19T17:02:26.452Z,42.20
2018-12-19T17:04:55.810Z,40.77
2018-12-19T17:07:25.079Z,37.10
2018-12-19T17:09:54.910Z,40.63
2018-12-19T17:12:26.109Z,38.87
2018-12-19T17:14:55.407Z,34.53
2018-12-19T17:17:24.909Z,34.80
2018-12-19T17:19:54.433Z,38.63
2018-12-19T17:22:24.194Z,44.17
2018-12-19T17:25:00.285Z,41.27
2018-12-19T17:27:29.953Z,39.60
2018-12-19T17:29:59.436Z,35.90
2018-12-19T17:32:29.290Z,39.07
2018-12-19T17:34:58.929Z,45.30
2018-12-19T17:37:29.000Z,42.37
2018-12-19T17:39:58.627Z,49.00
2018-12-19T17:42:28.222Z,36.83
2018-12-19T17:44:58.387Z,43.33
2018-12-19T17:47:28.132Z,48.00
2018-12-19T17:49:57.656Z,45.43
2018-12-19T17:52:27.729Z,44.53
2018-12-19T17:54:57.248Z,45.30
2018-12-19T17:57:27.914Z,49.00
2018-12-19T17:59:57.501Z,46.97
2018-12-19T18:02:28.121Z,41.47
2018-12-19T18:04:57.504Z,50.43
2018-12-19T18:07:27.754Z,44.17
2018-12-19T18:09:58.285Z,42.17
2018-12-19T18:12:27.832Z,44.33
2018-12-19T18:14:57.739Z,39.97
2018-12-19T18:17:27.353Z,46.33
2018-12-19T18:19:58.030Z,47.50
2018-12-19T18:22:28.394Z,43.73
2018-12-19T18:24:58.270Z,48.07
2018-12-19T18:27:28.089Z,57.30
2018-12-19T18:29:58.522Z,45.67
2018-12-19T18:32:28.566Z,46.07
2018-12-19T18:34:58.541Z,43.70
2018-12-19T18:37:30.401Z,53.10
2018-12-19T18:39:59.973Z,43.00
2018-12-19T18:42:29.708Z,42.27
2018-12-19T18:45:02.005Z,47.27
2018-12-19T18:47:31.594Z,45.53
2018-12-19T18:50:01.471Z,40.77
2018-12-19T18:52:31.242Z,50.80
2018-12-19T18:55:01.733Z,40.10
2018-12-19T18:57:31.457Z,38.43
2018-12-19T19:00:01.148Z,41.70
2018-12-19T19:02:30.867Z,44.73
2018-12-19T19:05:01.163Z,38.67
2018-12-19T19:07:33.408Z,41.17
2018-12-19T19:10:03.298Z,40.27
2018-12-19T19:12:32.941Z,52.03
2018-12-19T19:15:03.146Z,46.20
2018-12-19T19:17:32.758Z,44.33
2018-12-19T19:20:02.488Z,39.80
2018-12-19T19:22:32.122Z,39.90
2018-12-19T19:25:01.728Z,39.63
2018-12-19T19:27:33.034Z,38.80
2018-12-19T19:30:02.939Z,36.00
2018-12-19T19:32:32.590Z,41.17
2018-12-19T19:35:02.403Z,38.97
2018-12-19T19:37:32.350Z,38.00
2018-12-19T19:40:05.384Z,38.40
2018-12-19T19:42:35.171Z,44.93
2018-12-19T19:45:05.278Z,41.73
2018-12-19T19:47:34.973Z,37.67
2018-12-19T19:50:05.890Z,37.77
2018-12-19T19:52:35.531Z,43.33
2018-12-19T19:55:05.377Z,45.40
2018-12-19T19:57:35.628Z,40.20
2018-12-19T20:00:06.392Z,38.37
2018-12-19T20:02:36.016Z,40.23
2018-12-19T20:05:06.402Z,39.67
2018-12-19T20:07:37.730Z,43.90
2018-12-19T20:10:07.818Z,40.23
2018-12-19T20:12:38.456Z,43.40
2018-12-19T20:15:08.334Z,43.17
2018-12-19T20:17:37.980Z,40.63
2018-12-19T20:20:07.761Z,39.33
2018-12-19T20:22:39.203Z,43.23
2018-12-19T20:25:08.872Z,39.07
2018-12-19T20:27:40.396Z,42.10
2018-12-19T20:30:11.861Z,38.40
2018-12-19T20:32:42.329Z,39.73
2018-12-19T20:35:12.505Z,40.70
2018-12-19T20:37:43.994Z,39.20
2018-12-19T20:40:14.007Z,40.23
2018-12-19T20:42:44.089Z,40.43
2018-12-19T20:45:14.562Z,41.10
2018-12-19T20:47:45.513Z,45.03
2018-12-19T20:50:15.274Z,45.03
2018-12-19T20:52:45.498Z,50.13
2018-12-19T20:55:15.629Z,48.23
2018-12-19T20:57:45.920Z,48.30
2018-12-19T21:00:15.716Z,43.20
2018-12-19T21:02:45.717Z,49.10
2018-12-19T21:05:15.430Z,46.20
2018-12-19T21:07:46.053Z,50.37
2018-12-19T21:10:16.112Z,45.80
2018-12-19T21:12:47.404Z,49.10
2018-12-19T21:15:17.873Z,45.43
2018-12-19T21:17:53.467Z,50.20
2018-12-19T21:20:23.187Z,49.30
2018-12-19T21:22:52.941Z,58.97
2018-12-19T21:25:24.995Z,49.67
2018-12-19T21:27:54.986Z,51.87
2018-12-19T21:30:27.056Z,49.23
2018-12-19T21:32:56.778Z,53.53
2018-12-19T21:35:26.506Z,53.97
2018-12-19T21:37:56.208Z,51.93
2018-12-19T21:40:25.899Z,51.87
2018-12-19T21:42:56.797Z,57.07
2018-12-19T21:45:26.212Z,56.63
2018-12-19T21:47:55.574Z,54.37
2018-12-19T21:50:25.794Z,59.83
2018-12-19T21:52:55.169Z,61.40
2018-12-19T21:55:24.571Z,50.63
2018-12-19T21:57:53.868Z,56.37
2018-12-19T22:00:25.325Z,58.80
2018-12-19T22:02:54.862Z,61.97
2018-12-19T22:05:24.173Z,60.40
2018-12-19T22:07:56.135Z,69.10
2018-12-19T22:10:26.311Z,57.93
2018-12-19T22:12:56.159Z,63.60
2018-12-19T22:15:25.758Z,57.53
2018-12-19T22:18:00.542Z,71.83
2018-12-19T22:20:30.035Z,70.90
2018-12-19T22:22:59.557Z,72.27
2018-12-19T22:25:29.640Z,71.03
2018-12-19T22:27:58.969Z,71.00
2018-12-19T22:30:29.322Z,70.73
2018-12-19T22:32:58.723Z,81.70
2018-12-19T22:35:28.558Z,72.37
2018-12-19T22:37:58.134Z,70.63
2018-12-19T22:40:27.453Z,82.10
2018-12-19T22:42:56.670Z,69.97
2018-12-19T22:45:27.164Z,73.87
2018-12-19T22:47:56.737Z,79.37
2018-12-19T22:50:26.355Z,78.77
2018-12-19T22:52:55.621Z,73.23
2018-12-19T22:55:24.900Z,87.07
2018-12-19T22:57:54.232Z,83.60
2018-12-19T23:00:23.754Z,83.87
2018-12-19T23:02:58.333Z,81.60
2018-12-19T23:05:32.852Z,82.57
2018-12-19T23:08:02.224Z,84.83
2018-12-19T23:10:31.496Z,89.33
2018-12-19T23:13:01.830Z,84.57
2018-12-19T23:15:31.132Z,97.67
2018-12-19T23:18:33.895Z,89.13
2018-12-19T23:21:10.669Z,76.67
2018-12-19T23:23:40.796Z,89.63
2018-12-19T23:26:12.882Z,94.83
2018-12-19T23:28:42.832Z,79.33
2018-12-19T23:31:12.323Z,83.10
2018-12-19T23:33:42.087Z,75.27
2018-12-19T23:36:11.387Z,75.40
2018-12-19T23:38:41.428Z,77.00
2018-12-19T23:41:10.842Z,76.57
2018-12-19T23:43:40.195Z,83.80
2018-12-19T23:46:09.397Z,86.70
2018-12-19T23:48:39.439Z,85.57
2018-12-19T23:51:09.335Z,76.17
2018-12-19T23:53:39.325Z,69.50
2018-12-19T23:56:08.826Z,77.10
2018-12-19T23:58:38.060Z,77.33
